Deer Harbor, Washington
Current Conditions -  °F | °C
As of 4:15 PM on Saturday 20 Dec 2014 (Local Time) from KORS Reporting Station
Light Rain Light Rain  
Wind Chill: 43°   Ceiling: 1600
Heat Index: 48°   Visibility: 5mi
Dew Point: 46°   Wind: 14mph
Humidity: 93%   Direction: 170°S
Pressure: 29.33"   Gusts: 24mph
Location:  48.62°N, 122.99°W
Report Text: KORS 210015Z AUTO 17012G21KT 030V040 5SM -RA BKN016 BKN026 BKN045 09/08 A2933 RMK AO2 P0001
Loading
Personal Weather Stations






























Interactive Weather Map New forecast layout! Learn more

10-Day Weather Forecast

Advertisements
Track Severe Weather on mobile